createdAt,value
2023-02-02T00:02:01.796Z,96306.47
2023-02-02T00:04:33.596Z,96280.59
2023-02-02T00:07:00.946Z,96280.47
2023-02-02T00:09:30.021Z,96287.63
2023-02-02T00:11:57.517Z,96292.31
2023-02-02T00:14:24.740Z,96299.88
2023-02-02T00:16:56.211Z,96295.25
2023-02-02T00:19:28.231Z,96289.81
2023-02-02T00:21:55.421Z,96302.63
2023-02-02T00:24:22.444Z,96283.69
2023-02-02T00:26:57.774Z,96294.13
2023-02-02T00:29:27.232Z,96290.97
2023-02-02T00:31:54.004Z,96279.72
2023-02-02T00:34:21.393Z,96276.19
2023-02-02T00:36:48.957Z,96288.78
2023-02-02T00:39:18.757Z,96300.69
2023-02-02T00:41:45.882Z,96289.81
2023-02-02T00:44:30.976Z,96284.38
2023-02-02T00:46:57.603Z,96275.06
2023-02-02T00:49:24.255Z,96273.94
2023-02-02T00:51:50.774Z,96267.56
2023-02-02T00:54:17.286Z,96261.81
2023-02-02T00:56:44.212Z,96269.97
2023-02-02T00:59:11.506Z,96270.31
2023-02-02T01:01:38.309Z,96290.41
2023-02-02T01:04:04.804Z,96261.81
2023-02-02T01:06:31.336Z,96284.38
2023-02-02T01:08:57.854Z,96256.03
2023-02-02T01:11:25.567Z,96253.72
2023-02-02T01:13:53.508Z,96257.25
2023-02-02T01:16:22.418Z,96276.56
2023-02-02T01:18:50.166Z,96242.16
2023-02-02T01:21:16.933Z,96276.00
2023-02-02T01:23:43.481Z,96244.91
2023-02-02T01:26:11.679Z,96256.00
2023-02-02T01:28:38.616Z,96268.84
2023-02-02T01:31:08.245Z,96255.13
2023-02-02T01:33:34.871Z,96253.84
2023-02-02T01:36:07.514Z,96272.00
2023-02-02T01:38:34.693Z,96256.47
2023-02-02T01:41:04.410Z,96273.72
2023-02-02T01:43:52.952Z,96213.34
2023-02-02T01:46:30.804Z,96246.94
2023-02-02T01:49:10.511Z,96265.09
2023-02-02T01:51:49.254Z,96260.22
2023-02-02T01:54:21.810Z,96250.44
2023-02-02T01:57:00.556Z,96245.09
2023-02-02T01:59:29.275Z,96224.22
2023-02-02T02:01:56.046Z,96240.81
2023-02-02T02:04:24.362Z,96214.59
2023-02-02T02:06:53.509Z,96231.97
2023-02-02T02:09:20.219Z,96235.47
2023-02-02T02:11:46.710Z,96204.63
2023-02-02T02:14:33.412Z,96207.47
2023-02-02T02:17:27.909Z,96244.63
2023-02-02T02:20:51.384Z,96251.78
2023-02-02T02:24:19.289Z,96237.19
2023-02-02T02:27:09.996Z,96227.63
2023-02-02T02:30:00.909Z,96245.44
2023-02-02T02:32:35.866Z,96232.28
2023-02-02T02:35:13.758Z,96218.47
2023-02-02T02:37:54.156Z,96225.50
2023-02-02T02:40:30.878Z,96243.31
2023-02-02T02:43:06.620Z,96202.72
2023-02-02T02:45:34.118Z,96247.63
2023-02-02T02:48:03.337Z,96212.53
2023-02-02T02:50:30.629Z,96220.84
2023-02-02T02:53:04.608Z,96240.22
2023-02-02T02:55:42.710Z,96247.50
2023-02-02T02:58:26.996Z,96239.41
2023-02-02T03:01:07.510Z,96236.72
2023-02-02T03:03:52.552Z,96201.81
2023-02-02T03:06:31.403Z,96229.47
2023-02-02T03:09:07.359Z,96247.38
2023-02-02T03:11:35.335Z,96226.28
2023-02-02T03:14:02.412Z,96226.28
2023-02-02T03:16:28.837Z,96147.94
2023-02-02T03:18:56.761Z,96227.06
2023-02-02T03:21:23.205Z,96144.44
2023-02-02T03:23:49.809Z,96235.25
2023-02-02T03:26:16.392Z,96237.75
2023-02-02T03:28:43.246Z,96253.41
2023-02-02T03:31:09.736Z,96262.50
2023-02-02T03:33:37.774Z,96258.63
2023-02-02T03:36:04.693Z,96256.59
2023-02-02T03:38:31.292Z,96246.25
2023-02-02T03:40:57.722Z,96260.44
2023-02-02T03:43:24.955Z,96154.72
2023-02-02T03:45:59.578Z,96278.94
2023-02-02T03:48:26.487Z,96268.38
2023-02-02T03:50:53.689Z,96222.31
2023-02-02T03:53:20.368Z,96246.03
2023-02-02T03:55:46.866Z,96259.06
2023-02-02T03:58:13.357Z,96270.88
2023-02-02T04:00:39.760Z,96239.00
2023-02-02T04:03:06.551Z,96251.72
2023-02-02T04:05:32.959Z,96255.34
2023-02-02T04:07:59.431Z,96254.44
2023-02-02T04:10:26.062Z,96253.06
2023-02-02T04:12:52.490Z,96251.91
2023-02-02T04:15:18.895Z,96265.75
2023-02-02T04:17:45.337Z,96266.13
2023-02-02T04:20:12.059Z,96215.41
2023-02-02T04:22:38.461Z,96239.00
2023-02-02T04:25:05.367Z,96251.00
2023-02-02T04:27:33.928Z,96274.03
2023-02-02T04:30:00.362Z,96165.41
2023-02-02T04:32:26.925Z,96196.94
2023-02-02T04:34:53.386Z,96277.69
2023-02-02T04:37:19.822Z,96272.00
2023-02-02T04:39:46.271Z,96284.16
2023-02-02T04:42:12.733Z,96280.19
2023-02-02T04:44:39.830Z,96253.19
2023-02-02T04:47:06.411Z,96267.72
2023-02-02T04:49:32.819Z,96271.78
2023-02-02T04:51:59.330Z,96272.13
2023-02-02T04:54:25.835Z,96292.66
2023-02-02T04:56:52.236Z,96268.50
2023-02-02T04:59:18.635Z,96275.84
2023-02-02T05:01:46.210Z,96267.34
2023-02-02T05:04:12.675Z,96268.94
2023-02-02T05:06:39.137Z,96261.47
2023-02-02T05:09:05.567Z,96276.19
2023-02-02T05:11:32.099Z,96300.06
2023-02-02T05:13:58.539Z,96232.53
2023-02-02T05:16:27.165Z,96227.78
2023-02-02T05:18:57.754Z,96288.59
2023-02-02T05:21:24.395Z,96237.75
2023-02-02T05:23:50.842Z,96279.38
2023-02-02T05:26:21.258Z,96222.53
2023-02-02T05:28:48.481Z,96278.69
2023-02-02T05:31:15.721Z,96282.44
2023-02-02T05:33:42.774Z,96318.34
2023-02-02T05:36:09.470Z,96293.69
2023-02-02T05:38:36.209Z,96283.69
2023-02-02T05:41:03.487Z,96284.16
2023-02-02T05:43:31.889Z,96305.47
2023-02-02T05:45:58.448Z,96242.88
2023-02-02T05:48:25.262Z,96305.50
2023-02-02T05:51:06.638Z,96309.69
2023-02-02T05:53:33.705Z,96305.16
2023-02-02T05:56:00.182Z,96299.25
2023-02-02T05:58:27.904Z,96241.47
2023-02-02T06:00:56.604Z,96279.16
2023-02-02T06:03:24.028Z,96303.00
2023-02-02T06:05:50.718Z,96294.38
2023-02-02T06:08:17.120Z,96245.03
2023-02-02T06:10:44.170Z,96308.66
2023-02-02T06:13:10.691Z,96280.97
2023-02-02T06:15:37.403Z,96292.78
2023-02-02T06:18:06.612Z,96314.56
2023-02-02T06:20:33.181Z,96263.72
2023-02-02T06:23:00.623Z,96287.09
2023-02-02T06:25:27.729Z,96262.81
2023-02-02T06:27:56.393Z,96299.00
2023-02-02T06:30:22.869Z,96291.66
2023-02-02T06:32:49.258Z,96290.41
2023-02-02T06:35:15.946Z,96301.06
2023-02-02T06:37:42.351Z,96298.31
2023-02-02T06:40:10.043Z,96310.94
2023-02-02T06:42:36.541Z,96303.22
2023-02-02T06:45:04.306Z,96264.28
2023-02-02T06:47:32.872Z,96278.25
2023-02-02T06:49:59.303Z,96317.19
2023-02-02T06:52:25.775Z,96302.66
2023-02-02T06:54:52.237Z,96309.47
2023-02-02T06:57:18.687Z,96310.94
2023-02-02T06:59:45.143Z,96329.78
2023-02-02T07:02:13.113Z,96322.50
2023-02-02T07:04:39.945Z,96325.59
2023-02-02T07:07:06.533Z,96267.13
2023-02-02T07:09:33.989Z,96315.16
2023-02-02T07:12:00.434Z,96329.78
2023-02-02T07:14:27.126Z,96318.75
2023-02-02T07:16:53.691Z,96345.09
2023-02-02T07:19:20.124Z,96307.53
2023-02-02T07:21:46.535Z,96353.41
2023-02-02T07:24:12.917Z,96326.28
2023-02-02T07:26:39.469Z,96246.13
2023-02-02T07:29:06.539Z,96328.31
2023-02-02T07:31:36.124Z,96317.53
2023-02-02T07:34:03.291Z,96358.50
2023-02-02T07:36:29.709Z,96355.09
2023-02-02T07:38:57.579Z,96368.84
2023-02-02T07:41:24.753Z,96382.13
2023-02-02T07:43:51.886Z,96391.22
2023-02-02T07:46:19.885Z,96392.91
2023-02-02T07:48:46.653Z,96368.59
2023-02-02T07:51:15.777Z,96378.84
2023-02-02T07:53:50.395Z,96388.13
2023-02-02T07:56:18.052Z,96368.59
2023-02-02T07:58:44.963Z,96387.13
2023-02-02T08:01:13.884Z,96386.56
2023-02-02T08:03:42.797Z,96387.22
2023-02-02T08:06:14.269Z,96404.94
2023-02-02T08:08:41.128Z,96370.31
2023-02-02T08:11:12.753Z,96395.06
2023-02-02T08:13:40.740Z,96406.88
2023-02-02T08:16:08.899Z,96402.44
2023-02-02T08:18:36.024Z,96422.09
2023-02-02T08:21:03.825Z,96414.50
2023-02-02T08:23:31.301Z,96402.66
2023-02-02T08:26:19.116Z,96417.53
2023-02-02T08:28:48.186Z,96443.00
2023-02-02T08:31:21.596Z,96452.66
2023-02-02T08:33:48.457Z,96453.69
2023-02-02T08:36:21.004Z,96450.63
2023-02-02T08:38:47.560Z,96432.19
2023-02-02T08:41:16.550Z,96431.75
2023-02-02T08:43:43.497Z,96433.91
2023-02-02T08:46:11.658Z,96451.28
2023-02-02T08:48:44.600Z,96443.91
2023-02-02T08:51:15.045Z,96436.72
2023-02-02T08:53:42.840Z,96466.16
2023-02-02T08:56:15.188Z,96448.22
2023-02-02T08:58:45.820Z,96459.22
2023-02-02T09:01:24.095Z,96455.59
2023-02-02T09:04:00.212Z,96465.59
2023-02-02T09:06:30.760Z,96453.91
2023-02-02T09:08:57.254Z,96432.53
2023-02-02T09:11:23.858Z,96445.84
2023-02-02T09:13:55.076Z,96464.69
2023-02-02T09:16:22.636Z,96438.44
2023-02-02T09:18:49.186Z,96436.50
2023-02-02T09:21:17.230Z,96485.25
2023-02-02T09:23:45.620Z,96476.59
2023-02-02T09:26:24.662Z,96436.84
2023-02-02T09:28:56.592Z,96475.56
2023-02-02T09:31:23.700Z,96475.69
2023-02-02T09:33:50.382Z,96437.06
2023-02-02T09:36:20.349Z,96479.91
2023-02-02T09:38:47.913Z,96471.28
2023-02-02T09:41:28.329Z,96465.59
2023-02-02T09:44:21.340Z,96468.22
2023-02-02T09:47:12.797Z,96478.09
2023-02-02T09:49:52.000Z,96473.09
2023-02-02T09:52:36.512Z,96455.03
2023-02-02T09:55:25.424Z,96453.66
2023-02-02T09:57:57.917Z,96469.78
2023-02-02T10:00:34.265Z,96484.69
2023-02-02T10:03:07.465Z,96484.00
2023-02-02T10:05:47.501Z,96474.94
2023-02-02T10:08:33.856Z,96456.50
2023-02-02T10:11:19.339Z,96488.00
2023-02-02T10:13:48.599Z,96460.72
2023-02-02T10:16:17.561Z,96482.19
2023-02-02T10:19:01.303Z,96476.28
2023-02-02T10:21:33.218Z,96471.75
2023-02-02T10:24:02.448Z,96468.56
2023-02-02T10:26:39.072Z,96474.59
2023-02-02T10:29:08.981Z,96476.84
2023-02-02T10:31:41.405Z,96475.59
2023-02-02T10:34:16.348Z,96440.41
2023-02-02T10:36:55.987Z,96488.22
2023-02-02T10:39:31.665Z,96481.31
2023-02-02T10:42:32.044Z,96477.09
2023-02-02T10:45:13.572Z,96460.50
2023-02-02T10:47:40.135Z,96441.16
2023-02-02T10:50:12.722Z,96421.31
2023-02-02T10:52:47.523Z,96450.63
2023-02-02T10:55:13.947Z,96476.06
2023-02-02T10:57:49.387Z,96468.91
2023-02-02T11:00:28.629Z,96455.03
2023-02-02T11:02:56.079Z,96456.41
2023-02-02T11:05:48.013Z,96484.56
2023-02-02T11:08:20.095Z,96468.66
2023-02-02T11:10:50.286Z,96443.56
2023-02-02T11:13:31.216Z,96462.06
2023-02-02T11:16:15.991Z,96467.00
2023-02-02T11:18:44.362Z,96465.13
2023-02-02T11:21:22.208Z,96461.72
2023-02-02T11:23:53.859Z,96463.09
2023-02-02T11:26:22.016Z,96441.84
2023-02-02T11:28:50.296Z,96450.72
2023-02-02T11:31:44.604Z,96478.09
2023-02-02T11:34:26.392Z,96478.19
2023-02-02T11:37:15.807Z,96475.03
2023-02-02T11:39:43.645Z,96476.84
2023-02-02T11:42:17.268Z,96470.84
2023-02-02T11:44:48.239Z,96433.81
2023-02-02T11:47:30.468Z,96475.84
2023-02-02T11:50:00.706Z,96456.63
2023-02-02T11:52:32.647Z,96466.63
2023-02-02T11:55:14.566Z,96421.41
2023-02-02T11:57:41.058Z,96459.25
2023-02-02T12:00:10.530Z,96466.16
2023-02-02T12:02:37.104Z,96469.47
2023-02-02T12:05:15.576Z,96493.44
2023-02-02T12:07:43.495Z,96485.06
2023-02-02T12:10:14.967Z,96470.50
2023-02-02T12:12:53.985Z,96451.63
2023-02-02T12:15:38.813Z,96471.75
2023-02-02T12:18:19.910Z,96467.78
2023-02-02T12:21:04.594Z,96461.19
2023-02-02T12:24:18.962Z,96468.91
2023-02-02T12:26:56.162Z,96468.22
2023-02-02T12:29:42.412Z,96485.38
2023-02-02T12:32:43.843Z,96450.72
2023-02-02T12:35:13.327Z,96461.06
2023-02-02T12:37:51.763Z,96456.72
2023-02-02T12:40:38.501Z,96457.06
2023-02-02T12:43:40.867Z,96486.72
2023-02-02T12:46:45.561Z,96475.47
2023-02-02T12:49:40.421Z,96477.09
2023-02-02T12:52:17.429Z,96481.28
2023-02-02T12:54:57.996Z,96480.28
2023-02-02T12:57:40.846Z,96475.03
2023-02-02T13:00:24.398Z,96474.69
2023-02-02T13:03:06.862Z,96483.00
2023-02-02T13:06:06.163Z,96466.50
2023-02-02T13:08:40.053Z,96466.38
2023-02-02T13:11:29.776Z,96465.00
2023-02-02T13:14:16.163Z,96505.00
2023-02-02T13:16:50.788Z,96481.81
2023-02-02T13:19:38.363Z,96500.09
2023-02-02T13:22:08.926Z,96511.13
2023-02-02T13:24:39.357Z,96510.53
2023-02-02T13:27:09.879Z,96485.50
2023-02-02T13:29:48.103Z,96512.34
2023-02-02T13:32:26.724Z,96508.03
2023-02-02T13:35:02.098Z,96519.97
2023-02-02T13:37:37.590Z,96528.38
2023-02-02T13:40:38.585Z,96534.16
2023-02-02T13:43:32.835Z,96545.59
2023-02-02T13:46:21.197Z,96547.66
2023-02-02T13:48:57.838Z,96516.72
2023-02-02T13:51:45.929Z,96530.16
2023-02-02T13:54:33.434Z,96531.53
2023-02-02T13:57:29.007Z,96538.66
2023-02-02T14:00:01.544Z,96531.84
2023-02-02T14:02:41.290Z,96542.88
2023-02-02T14:05:21.861Z,96541.03
2023-02-02T14:07:49.163Z,96544.94
2023-02-02T14:10:31.610Z,96545.13
2023-02-02T14:13:29.969Z,96526.56
2023-02-02T14:15:58.243Z,96555.22
2023-02-02T14:18:49.986Z,96561.72
2023-02-02T14:21:31.676Z,96563.53
2023-02-02T14:24:27.122Z,96555.47
2023-02-02T14:26:59.413Z,96547.16
2023-02-02T14:29:29.546Z,96571.59
2023-02-02T14:31:57.308Z,96560.34
2023-02-02T14:34:34.278Z,96566.00
2023-02-02T14:37:17.807Z,96569.97
2023-02-02T14:40:07.084Z,96561.38
2023-02-02T14:43:26.262Z,96587.28
2023-02-02T14:46:14.838Z,96579.50
2023-02-02T14:48:48.063Z,96555.84
2023-02-02T14:51:18.709Z,96550.94
2023-02-02T14:54:01.073Z,96559.88
2023-02-02T14:56:45.543Z,96581.44
2023-02-02T14:59:33.921Z,96584.13
2023-02-02T15:02:15.192Z,96567.47
2023-02-02T15:04:42.058Z,96570.44
2023-02-02T15:07:23.538Z,96584.28
2023-02-02T15:09:51.864Z,96575.28
2023-02-02T15:12:22.570Z,96584.28
2023-02-02T15:14:56.200Z,96583.34
2023-02-02T15:17:41.062Z,96595.41
2023-02-02T15:20:26.659Z,96578.63
2023-02-02T15:23:12.177Z,96595.31
2023-02-02T15:25:48.142Z,96590.44
2023-02-02T15:28:24.347Z,96582.78
2023-02-02T15:31:05.978Z,96591.41
2023-02-02T15:33:42.116Z,96582.50
2023-02-02T15:36:17.336Z,96612.66
2023-02-02T15:38:46.535Z,96605.97
2023-02-02T15:41:34.480Z,96615.75
2023-02-02T15:44:01.256Z,96605.25
2023-02-02T15:46:34.223Z,96603.22
2023-02-02T15:49:34.230Z,96609.59
2023-02-02T15:52:29.645Z,96620.34
2023-02-02T15:54:58.712Z,96623.09
2023-02-02T15:57:36.910Z,96635.84
2023-02-02T16:00:34.527Z,96639.50
2023-02-02T16:03:18.099Z,96644.19
2023-02-02T16:05:48.955Z,96635.38
2023-02-02T16:08:24.677Z,96646.53
2023-02-02T16:11:02.436Z,96655.88
2023-02-02T16:13:29.522Z,96634.47
2023-02-02T16:15:58.840Z,96654.13
2023-02-02T16:18:25.386Z,96635.06
2023-02-02T16:20:54.214Z,96664.22
2023-02-02T16:23:28.581Z,96661.44
2023-02-02T16:25:58.225Z,96663.56
2023-02-02T16:28:25.139Z,96657.31
2023-02-02T16:30:52.900Z,96652.63
2023-02-02T16:33:41.091Z,96680.75
2023-02-02T16:36:24.367Z,96677.63
2023-02-02T16:38:52.564Z,96694.91
2023-02-02T16:41:26.719Z,96675.38
2023-02-02T16:43:53.578Z,96690.78
2023-02-02T16:46:41.283Z,96699.31
2023-02-02T16:49:15.836Z,96684.22
2023-02-02T16:51:42.493Z,96676.59
2023-02-02T16:54:09.124Z,96709.19
2023-02-02T16:56:39.605Z,96681.19
2023-02-02T16:59:25.921Z,96724.41
2023-02-02T17:01:55.849Z,96725.78
2023-02-02T17:04:32.823Z,96700.41
2023-02-02T17:07:11.573Z,96715.88
2023-02-02T17:09:42.880Z,96736.69
2023-02-02T17:12:30.644Z,96739.22
2023-02-02T17:15:05.562Z,96735.50
2023-02-02T17:17:32.041Z,96731.00
2023-02-02T17:19:58.520Z,96743.69
2023-02-02T17:22:27.495Z,96726.22
2023-02-02T17:24:54.077Z,96743.63
2023-02-02T17:27:33.828Z,96725.94
2023-02-02T17:30:01.969Z,96748.91
2023-02-02T17:32:28.374Z,96742.63
2023-02-02T17:34:54.848Z,96725.28
2023-02-02T17:37:21.251Z,96764.09
2023-02-02T17:39:48.563Z,96758.78
2023-02-02T17:42:27.655Z,96760.81
2023-02-02T17:44:54.211Z,96769.47
2023-02-02T17:47:20.608Z,96751.69
2023-02-02T17:49:47.130Z,96754.06
2023-02-02T17:52:13.940Z,96780.63
2023-02-02T17:54:40.387Z,96767.88
2023-02-02T17:57:06.781Z,96764.31
2023-02-02T17:59:33.212Z,96778.16
2023-02-02T18:01:59.770Z,96780.94
2023-02-02T18:04:28.651Z,96802.91
2023-02-02T18:06:55.053Z,96776.28
2023-02-02T18:09:21.486Z,96791.50
2023-02-02T18:11:49.719Z,96797.81
2023-02-02T18:14:16.328Z,96811.91
2023-02-02T18:16:42.723Z,96778.31
2023-02-02T18:19:10.275Z,96782.97
2023-02-02T18:21:36.800Z,96805.88
2023-02-02T18:24:03.373Z,96808.47
2023-02-02T18:26:31.343Z,96802.84
2023-02-02T18:28:59.104Z,96832.03
2023-02-02T18:31:26.938Z,96803.94
2023-02-02T18:33:54.330Z,96822.78
2023-02-02T18:36:21.578Z,96814.63
2023-02-02T18:38:48.963Z,96842.94
2023-02-02T18:41:17.337Z,96811.13
2023-02-02T18:43:45.444Z,96807.19
2023-02-02T18:46:13.819Z,96851.00
2023-02-02T18:48:41.520Z,96836.59
2023-02-02T18:51:18.025Z,96835.13
2023-02-02T18:53:46.153Z,96853.41
2023-02-02T18:56:14.488Z,96843.25
2023-02-02T18:58:41.116Z,96819.13
2023-02-02T19:01:15.984Z,96847.34
2023-02-02T19:03:43.205Z,96839.31
2023-02-02T19:06:28.380Z,96855.25
2023-02-02T19:08:55.197Z,96849.72
2023-02-02T19:11:23.789Z,96829.09
2023-02-02T19:13:50.564Z,96843.69
2023-02-02T19:16:24.971Z,96864.88
2023-02-02T19:18:55.300Z,96853.69
2023-02-02T19:21:21.929Z,96876.94
2023-02-02T19:23:48.354Z,96849.88
2023-02-02T19:26:22.636Z,96862.19
2023-02-02T19:28:49.149Z,96815.28
2023-02-02T19:31:16.196Z,96855.19
2023-02-02T19:33:50.884Z,96873.03
2023-02-02T19:36:23.342Z,96883.38
2023-02-02T19:38:52.613Z,96875.53
2023-02-02T19:41:24.527Z,96882.84
2023-02-02T19:43:55.826Z,96857.00
2023-02-02T19:46:25.649Z,96897.03
2023-02-02T19:49:13.220Z,96892.16
2023-02-02T19:51:39.649Z,96898.41
2023-02-02T19:54:18.144Z,96896.31
2023-02-02T19:56:44.592Z,96886.69
2023-02-02T19:59:17.844Z,96903.38
2023-02-02T20:01:50.467Z,96907.56
2023-02-02T20:04:18.897Z,96899.09
2023-02-02T20:06:58.560Z,96914.16
2023-02-02T20:09:30.022Z,96910.00
2023-02-02T20:11:56.745Z,96901.59
2023-02-02T20:14:29.260Z,96932.97
2023-02-02T20:17:04.738Z,96913.19
2023-02-02T20:19:36.765Z,96907.19
2023-02-02T20:22:04.031Z,96912.81
2023-02-02T20:24:42.116Z,96930.84
2023-02-02T20:27:18.416Z,96943.84
2023-02-02T20:29:47.334Z,96920.28
2023-02-02T20:32:26.511Z,96937.19
2023-02-02T20:34:55.175Z,96942.75
2023-02-02T20:37:26.822Z,96911.75
2023-02-02T20:40:02.133Z,96936.31
2023-02-02T20:42:29.237Z,96929.69
2023-02-02T20:44:58.040Z,96937.47
2023-02-02T20:47:24.664Z,96925.56
2023-02-02T20:49:51.134Z,96932.34
2023-02-02T20:52:23.382Z,96932.00
2023-02-02T20:54:51.347Z,96948.88
2023-02-02T20:57:18.597Z,96942.84
2023-02-02T20:59:45.262Z,96930.00
2023-02-02T21:02:19.646Z,96956.03
2023-02-02T21:04:50.456Z,96924.34
2023-02-02T21:07:19.689Z,96952.78
2023-02-02T21:09:48.130Z,96948.44
2023-02-02T21:12:15.293Z,96943.66
2023-02-02T21:14:48.080Z,96953.81
2023-02-02T21:17:16.109Z,96953.50
2023-02-02T21:19:43.996Z,96944.09
2023-02-02T21:22:11.636Z,96967.31
2023-02-02T21:24:38.343Z,96937.06
2023-02-02T21:27:04.893Z,96960.88
2023-02-02T21:29:32.537Z,96934.31
2023-02-02T21:32:02.122Z,96940.84
2023-02-02T21:34:29.746Z,96944.09
2023-02-02T21:36:58.111Z,96957.69
2023-02-02T21:39:31.191Z,96963.06
2023-02-02T21:42:13.449Z,96947.69
2023-02-02T21:44:44.059Z,96969.91
2023-02-02T21:47:27.311Z,96973.53
2023-02-02T21:49:58.927Z,96954.91
2023-02-02T21:52:32.214Z,96959.69
2023-02-02T21:54:59.513Z,96951.88
2023-02-02T21:57:36.063Z,96948.00
2023-02-02T22:00:21.157Z,96941.81
2023-02-02T22:02:50.650Z,96973.88
2023-02-02T22:05:26.915Z,96961.41
2023-02-02T22:07:57.507Z,96963.44
2023-02-02T22:10:39.171Z,96941.19
2023-02-02T22:13:20.681Z,96965.63
2023-02-02T22:15:49.660Z,96965.63
2023-02-02T22:18:22.859Z,96973.69
2023-02-02T22:20:56.184Z,96956.63
2023-02-02T22:23:28.310Z,96973.69
2023-02-02T22:25:56.560Z,96985.72
2023-02-02T22:28:41.072Z,96978.66
2023-02-02T22:31:09.752Z,96953.50
2023-02-02T22:33:36.230Z,96951.72
2023-02-02T22:36:03.040Z,96976.69
2023-02-02T22:38:29.493Z,96975.69
2023-02-02T22:40:55.971Z,96977.28
2023-02-02T22:43:22.493Z,96987.91
2023-02-02T22:45:49.204Z,96953.31
2023-02-02T22:48:16.174Z,96969.75
2023-02-02T22:50:42.943Z,97003.53
2023-02-02T22:53:09.476Z,96995.34
2023-02-02T22:55:35.930Z,96977.94
2023-02-02T22:58:02.399Z,96981.31
2023-02-02T23:00:30.973Z,97011.84
2023-02-02T23:02:57.682Z,96990.13
2023-02-02T23:05:25.894Z,97007.25
2023-02-02T23:07:53.559Z,96974.09
2023-02-02T23:10:26.985Z,96990.09
2023-02-02T23:12:55.459Z,97020.91
2023-02-02T23:15:22.471Z,96994.16
2023-02-02T23:17:48.924Z,97002.94
2023-02-02T23:20:15.812Z,97000.34
2023-02-02T23:22:42.883Z,97008.06
2023-02-02T23:25:10.655Z,97008.22
2023-02-02T23:27:37.451Z,96939.66
2023-02-02T23:30:05.450Z,97010.09
2023-02-02T23:32:31.866Z,97013.03
2023-02-02T23:34:58.287Z,96995.41
2023-02-02T23:37:25.088Z,96991.22
2023-02-02T23:39:51.517Z,96975.47
2023-02-02T23:42:18.002Z,96936.25
2023-02-02T23:44:44.431Z,96996.63
2023-02-02T23:47:10.930Z,96946.75
2023-02-02T23:49:40.855Z,96975.84
2023-02-02T23:52:07.365Z,96976.94
2023-02-02T23:54:33.909Z,96950.75
2023-02-02T23:57:03.408Z,96980.03
2023-02-02T23:59:29.962Z,96979.78
